createdAt,value
2019-01-28T00:00:58.434Z,26.60
2019-01-28T00:02:03.235Z,22.80
2019-01-28T00:03:05.688Z,21.40
2019-01-28T00:04:08.374Z,24.40
2019-01-28T00:05:11.076Z,26.60
2019-01-28T00:06:13.679Z,22.20
2019-01-28T00:07:16.177Z,25.40
2019-01-28T00:08:18.896Z,24.00
2019-01-28T00:09:23.449Z,21.40
2019-01-28T00:10:27.356Z,25.40
2019-01-28T00:11:31.186Z,24.00
2019-01-28T00:12:34.168Z,24.00
2019-01-28T00:13:36.703Z,26.00
2019-01-28T00:14:39.371Z,25.00
2019-01-28T00:15:44.565Z,24.40
2019-01-28T00:16:48.061Z,26.00
2019-01-28T00:17:50.698Z,23.80
2019-01-28T00:18:53.656Z,29.80
2019-01-28T00:19:59.106Z,24.20
2019-01-28T00:21:01.497Z,24.80
2019-01-28T00:22:04.219Z,23.60
2019-01-28T00:23:06.898Z,19.80
2019-01-28T00:24:09.737Z,25.20
2019-01-28T00:25:14.783Z,22.80
2019-01-28T00:26:18.285Z,24.00
2019-01-28T00:27:21.001Z,23.40
2019-01-28T00:28:23.573Z,23.60
2019-01-28T00:29:28.522Z,26.00
2019-01-28T00:30:31.023Z,21.20
2019-01-28T00:31:33.543Z,26.00
2019-01-28T00:32:36.223Z,23.60
2019-01-28T00:33:41.833Z,24.00
2019-01-28T00:34:44.360Z,23.60
2019-01-28T00:35:47.035Z,23.00
2019-01-28T00:36:49.598Z,23.00
2019-01-28T00:37:52.888Z,23.00
2019-01-28T00:38:56.696Z,22.60
2019-01-28T00:39:59.333Z,22.40
2019-01-28T00:41:04.940Z,22.80
2019-01-28T00:42:07.522Z,25.20
2019-01-28T00:43:10.422Z,25.80
2019-01-28T00:44:13.058Z,24.60
2019-01-28T00:45:18.096Z,22.60
2019-01-28T00:46:22.460Z,21.80
2019-01-28T00:47:25.004Z,23.20
2019-01-28T00:48:27.433Z,23.20
2019-01-28T00:49:31.242Z,25.40
2019-01-28T00:50:33.690Z,22.20
2019-01-28T00:51:36.529Z,22.20
2019-01-28T00:52:39.066Z,24.40
2019-01-28T00:53:42.498Z,24.20
2019-01-28T00:54:45.004Z,23.80
2019-01-28T00:55:47.558Z,22.40
2019-01-28T00:56:50.066Z,27.40
2019-01-28T00:57:52.708Z,24.80
2019-01-28T00:58:55.925Z,24.20
2019-01-28T00:59:58.382Z,26.00
2019-01-28T01:01:00.866Z,25.80
2019-01-28T01:02:03.402Z,27.40
2019-01-28T01:03:06.324Z,24.40
2019-01-28T01:04:08.633Z,23.00
2019-01-28T01:05:12.205Z,21.80
2019-01-28T01:06:15.135Z,22.00
2019-01-28T01:07:18.420Z,24.00
2019-01-28T01:08:20.989Z,24.60
2019-01-28T01:09:23.461Z,26.20
2019-01-28T01:10:26.111Z,24.20
2019-01-28T01:11:28.767Z,23.60
2019-01-28T01:12:32.057Z,25.40
2019-01-28T01:13:34.651Z,23.80
2019-01-28T01:14:37.407Z,28.60
2019-01-28T01:15:39.901Z,25.00
2019-01-28T01:16:42.787Z,23.40
2019-01-28T01:17:45.435Z,24.80
2019-01-28T01:18:47.812Z,25.80
2019-01-28T01:19:50.935Z,20.40
2019-01-28T01:20:54.950Z,24.00
2019-01-28T01:21:57.400Z,20.40
2019-01-28T01:22:59.826Z,22.80
2019-01-28T01:24:02.480Z,24.20
2019-01-28T01:25:05.122Z,22.00
2019-01-28T01:26:07.712Z,26.80
2019-01-28T01:27:12.191Z,23.20
2019-01-28T01:28:15.372Z,23.20
2019-01-28T01:29:17.830Z,22.40
2019-01-28T01:30:20.314Z,22.20
2019-01-28T01:31:22.928Z,24.00
2019-01-28T01:32:25.880Z,23.60
2019-01-28T01:33:29.020Z,22.00
2019-01-28T01:34:31.408Z,24.80
2019-01-28T01:35:34.170Z,24.40
2019-01-28T01:36:37.539Z,25.40
2019-01-28T01:37:41.952Z,20.00
2019-01-28T01:38:44.327Z,24.60
2019-01-28T01:39:46.986Z,24.80
2019-01-28T01:40:52.631Z,23.00
2019-01-28T01:41:55.012Z,24.60
2019-01-28T01:42:57.625Z,22.40
2019-01-28T01:44:00.342Z,22.40
2019-01-28T01:45:04.834Z,22.40
2019-01-28T01:46:07.640Z,22.60
2019-01-28T01:47:10.166Z,20.80
2019-01-28T01:48:12.907Z,23.00
2019-01-28T01:49:15.421Z,20.20
2019-01-28T01:50:19.006Z,22.60
2019-01-28T01:51:22.171Z,22.40
2019-01-28T01:52:24.663Z,21.20
2019-01-28T01:53:27.292Z,19.60
2019-01-28T01:54:31.901Z,24.00
2019-01-28T01:55:34.719Z,23.00
2019-01-28T01:56:37.295Z,23.80
2019-01-28T01:57:39.903Z,21.80
2019-01-28T01:58:43.014Z,20.60
2019-01-28T01:59:45.445Z,23.60
2019-01-28T02:00:47.848Z,22.40
2019-01-28T02:01:50.406Z,21.00
2019-01-28T02:02:52.850Z,22.60
2019-01-28T02:03:55.537Z,22.20
2019-01-28T02:04:57.972Z,20.20
2019-01-28T02:06:01.889Z,20.60
2019-01-28T02:07:05.871Z,22.20
2019-01-28T02:08:08.306Z,20.60
2019-01-28T02:09:10.931Z,24.40
2019-01-28T02:10:15.066Z,21.60
2019-01-28T02:11:17.541Z,20.00
2019-01-28T02:12:19.890Z,23.60
2019-01-28T02:13:26.267Z,22.20
2019-01-28T02:14:30.970Z,24.20
2019-01-28T02:15:33.476Z,21.60
2019-01-28T02:16:35.861Z,20.40
2019-01-28T02:17:38.490Z,21.00
2019-01-28T02:18:40.964Z,24.60
2019-01-28T02:19:43.808Z,18.20
2019-01-28T02:20:46.462Z,22.40
2019-01-28T02:21:49.148Z,20.60
2019-01-28T02:22:51.759Z,20.80
2019-01-28T02:23:55.640Z,20.20
2019-01-28T02:25:00.424Z,20.60
2019-01-28T02:26:03.454Z,20.80
2019-01-28T02:27:08.492Z,22.40
2019-01-28T02:28:12.729Z,20.00
2019-01-28T02:29:15.207Z,21.40
2019-01-28T02:30:17.941Z,21.00
2019-01-28T02:31:20.909Z,21.20
2019-01-28T02:32:23.601Z,21.00
2019-01-28T02:33:26.263Z,17.00
2019-01-28T02:34:30.191Z,21.20
2019-01-28T02:35:32.975Z,19.80
2019-01-28T02:36:35.585Z,18.20
2019-01-28T02:37:39.616Z,20.00
2019-01-28T02:38:42.009Z,19.00
2019-01-28T02:39:46.835Z,18.80
2019-01-28T02:40:49.421Z,21.80
2019-01-28T02:41:51.915Z,20.40
2019-01-28T02:42:54.282Z,22.00
2019-01-28T02:43:59.227Z,18.60
2019-01-28T02:45:03.212Z,17.80
2019-01-28T02:46:05.917Z,18.80
2019-01-28T02:47:08.487Z,20.00
2019-01-28T02:48:12.107Z,22.00
2019-01-28T02:49:15.746Z,17.20
2019-01-28T02:50:18.957Z,20.40
2019-01-28T02:51:21.685Z,20.20
2019-01-28T02:52:24.505Z,19.40
2019-01-28T02:53:26.855Z,17.00
2019-01-28T02:54:29.759Z,18.40
2019-01-28T02:55:33.754Z,17.00
2019-01-28T02:56:36.483Z,18.20
2019-01-28T02:57:39.368Z,20.80
2019-01-28T02:58:41.770Z,18.80
2019-01-28T02:59:44.177Z,18.40
2019-01-28T03:00:46.675Z,17.00
2019-01-28T03:01:51.465Z,20.60
2019-01-28T03:02:54.059Z,20.00
2019-01-28T03:03:58.389Z,17.60
2019-01-28T03:05:00.822Z,20.20
2019-01-28T03:06:03.393Z,19.20
2019-01-28T03:07:05.997Z,19.60
2019-01-28T03:08:08.963Z,17.20
2019-01-28T03:09:11.482Z,20.60
2019-01-28T03:10:18.572Z,19.20
2019-01-28T03:11:21.606Z,17.00
2019-01-28T03:12:24.072Z,19.00
2019-01-28T03:13:28.521Z,15.60
2019-01-28T03:14:32.438Z,17.20
2019-01-28T03:15:36.864Z,18.60
2019-01-28T03:16:39.930Z,20.00
2019-01-28T03:17:42.340Z,17.60
2019-01-28T03:18:44.880Z,18.40
2019-01-28T03:19:47.904Z,19.00
2019-01-28T03:20:50.326Z,17.60
2019-01-28T03:21:53.022Z,21.60
2019-01-28T03:22:55.513Z,18.80
2019-01-28T03:23:58.252Z,19.20
2019-01-28T03:25:01.918Z,18.80
2019-01-28T03:26:04.407Z,18.60
2019-01-28T03:27:07.117Z,17.40
2019-01-28T03:28:10.099Z,18.20
2019-01-28T03:29:12.487Z,17.00
2019-01-28T03:30:17.162Z,19.00
2019-01-28T03:31:21.117Z,14.80
2019-01-28T03:32:23.598Z,18.40
2019-01-28T03:33:26.201Z,17.60
2019-01-28T03:34:28.534Z,18.00
2019-01-28T03:35:30.999Z,19.20
2019-01-28T03:36:34.580Z,19.00
2019-01-28T03:37:37.797Z,21.40
2019-01-28T03:38:42.099Z,17.80
2019-01-28T03:39:44.973Z,17.00
2019-01-28T03:40:47.449Z,18.60
2019-01-28T03:41:50.655Z,18.20
2019-01-28T03:42:53.065Z,20.20
2019-01-28T03:43:55.666Z,18.20
2019-01-28T03:44:58.021Z,19.20
2019-01-28T03:46:01.018Z,18.80
2019-01-28T03:47:03.433Z,18.80
2019-01-28T03:48:05.858Z,19.40
2019-01-28T03:49:08.549Z,18.20
2019-01-28T03:50:12.167Z,15.40
2019-01-28T03:51:15.965Z,15.40
2019-01-28T03:52:18.584Z,17.60
2019-01-28T03:53:22.215Z,22.00
2019-01-28T03:54:24.766Z,18.20
2019-01-28T03:55:27.140Z,16.80
2019-01-28T03:56:29.561Z,18.60
2019-01-28T03:57:32.346Z,18.00
2019-01-28T03:58:34.807Z,18.00
2019-01-28T03:59:38.385Z,18.00
2019-01-28T04:00:40.953Z,17.20
2019-01-28T04:01:44.643Z,20.80
2019-01-28T04:02:47.491Z,18.00
2019-01-28T04:03:57.234Z,16.40
2019-01-28T04:04:59.994Z,18.00
2019-01-28T04:06:02.568Z,17.80
2019-01-28T04:07:05.038Z,21.60
2019-01-28T04:08:08.542Z,16.00
2019-01-28T04:09:10.970Z,18.40
2019-01-28T04:10:15.958Z,15.60
2019-01-28T04:11:19.640Z,16.60
2019-01-28T04:12:22.142Z,18.60
2019-01-28T04:13:24.742Z,18.00
2019-01-28T04:14:28.312Z,15.00
2019-01-28T04:15:32.531Z,18.60
2019-01-28T04:16:35.463Z,19.40
2019-01-28T04:17:37.929Z,17.80
2019-01-28T04:18:40.873Z,16.00
2019-01-28T04:19:43.287Z,18.80
2019-01-28T04:20:45.657Z,15.00
2019-01-28T04:21:48.170Z,19.00
2019-01-28T04:22:52.792Z,17.60
2019-01-28T04:23:57.620Z,19.40
2019-01-28T04:25:02.123Z,15.40
2019-01-28T04:26:04.869Z,15.00
2019-01-28T04:27:09.429Z,17.80
2019-01-28T04:28:11.749Z,15.40
2019-01-28T04:29:14.593Z,16.20
2019-01-28T04:30:18.993Z,15.20
2019-01-28T04:31:21.410Z,16.60
2019-01-28T04:32:23.755Z,17.40
2019-01-28T04:33:26.770Z,18.20
2019-01-28T04:34:29.175Z,17.60
2019-01-28T04:35:31.595Z,16.40
2019-01-28T04:36:34.068Z,20.60
2019-01-28T04:37:36.678Z,16.60
2019-01-28T04:38:39.229Z,14.80
2019-01-28T04:39:41.801Z,18.00
2019-01-28T04:40:44.403Z,21.00
2019-01-28T04:41:46.849Z,19.60
2019-01-28T04:42:49.403Z,16.00
2019-01-28T04:43:52.857Z,19.80
2019-01-28T04:44:55.583Z,17.00
2019-01-28T04:46:00.910Z,16.00
2019-01-28T04:47:03.519Z,17.00
2019-01-28T04:48:06.017Z,17.00
2019-01-28T04:49:10.872Z,17.20
2019-01-28T04:50:15.023Z,16.80
2019-01-28T04:51:18.634Z,15.60
2019-01-28T04:52:21.115Z,16.00
2019-01-28T04:53:23.507Z,15.60
2019-01-28T04:54:25.972Z,17.00
2019-01-28T04:55:28.515Z,19.40
2019-01-28T04:56:30.947Z,19.00
2019-01-28T04:57:33.278Z,17.20
2019-01-28T04:58:36.928Z,14.60
2019-01-28T04:59:41.043Z,16.80
2019-01-28T05:00:48.265Z,16.80
2019-01-28T05:01:51.999Z,19.40
2019-01-28T05:02:54.616Z,17.20
2019-01-28T05:03:58.395Z,16.80
2019-01-28T05:05:00.831Z,20.80
2019-01-28T05:06:05.572Z,20.00
2019-01-28T05:07:08.246Z,17.00
2019-01-28T05:08:10.947Z,20.00
2019-01-28T05:09:13.414Z,15.00
2019-01-28T05:10:16.373Z,18.20
2019-01-28T05:11:19.223Z,17.80
2019-01-28T05:12:22.583Z,18.40
2019-01-28T05:13:25.187Z,18.60
2019-01-28T05:14:29.994Z,19.20
2019-01-28T05:15:34.663Z,19.40
2019-01-28T05:16:37.555Z,18.60
2019-01-28T05:17:40.467Z,17.40
2019-01-28T05:18:43.102Z,16.00
2019-01-28T05:19:48.886Z,18.20
2019-01-28T05:20:51.247Z,20.80
2019-01-28T05:21:54.135Z,18.00
2019-01-28T05:22:56.521Z,18.80
2019-01-28T05:23:59.012Z,17.60
2019-01-28T05:25:04.273Z,15.80
2019-01-28T05:26:07.978Z,14.60
2019-01-28T05:27:10.717Z,17.60
2019-01-28T05:28:13.135Z,18.40
2019-01-28T05:29:15.539Z,18.20
2019-01-28T05:30:20.117Z,16.20
2019-01-28T05:31:22.702Z,19.60
2019-01-28T05:32:25.373Z,17.20
2019-01-28T05:33:28.150Z,16.40
2019-01-28T05:34:30.631Z,15.60
2019-01-28T05:35:33.135Z,16.80
2019-01-28T05:36:36.921Z,21.40
2019-01-28T05:37:40.063Z,19.20
2019-01-28T05:38:43.058Z,18.00
2019-01-28T05:39:45.851Z,19.60
2019-01-28T05:40:48.410Z,21.40
2019-01-28T05:41:50.805Z,17.20
2019-01-28T05:42:53.804Z,18.20
2019-01-28T05:43:56.202Z,19.80
2019-01-28T05:45:02.382Z,20.80
2019-01-28T05:46:04.932Z,21.20
2019-01-28T05:47:07.823Z,18.20
2019-01-28T05:48:10.374Z,17.40
2019-01-28T05:49:12.818Z,16.40
2019-01-28T05:50:16.518Z,18.40
2019-01-28T05:51:19.076Z,17.80
2019-01-28T05:52:21.803Z,16.40
2019-01-28T05:53:24.374Z,16.40
2019-01-28T05:54:26.687Z,16.20
2019-01-28T05:55:29.216Z,15.40
2019-01-28T05:56:31.717Z,16.60
2019-01-28T05:57:34.216Z,16.00
2019-01-28T05:58:36.566Z,17.40
2019-01-28T05:59:39.158Z,18.00
2019-01-28T06:00:45.695Z,17.60
2019-01-28T06:01:48.098Z,14.40
2019-01-28T06:02:51.878Z,17.00
2019-01-28T06:03:54.288Z,17.20
2019-01-28T06:04:56.836Z,16.80
2019-01-28T06:05:59.478Z,16.60
2019-01-28T06:07:02.069Z,18.00
2019-01-28T06:08:05.469Z,15.20
2019-01-28T06:09:08.993Z,18.80
2019-01-28T06:10:11.777Z,18.00
2019-01-28T06:11:14.701Z,21.00
2019-01-28T06:12:17.425Z,19.20
2019-01-28T06:13:20.156Z,17.60
2019-01-28T06:14:22.661Z,20.00
2019-01-28T06:15:25.293Z,16.80
2019-01-28T06:16:29.213Z,16.00
2019-01-28T06:17:38.699Z,19.20
2019-01-28T06:18:36.943Z,18.60
2019-01-28T06:19:41.282Z,17.80
2019-01-28T06:20:43.827Z,20.00
2019-01-28T06:21:48.300Z,18.80
2019-01-28T06:22:50.873Z,20.20
2019-01-28T06:23:54.101Z,18.80
2019-01-28T06:24:57.797Z,18.00
2019-01-28T06:26:00.369Z,18.00
2019-01-28T06:27:03.060Z,19.00
2019-01-28T06:28:05.804Z,19.20
2019-01-28T06:29:09.063Z,18.80
2019-01-28T06:30:17.428Z,19.80
2019-01-28T06:31:19.987Z,16.00
2019-01-28T06:32:22.555Z,20.60
2019-01-28T06:33:25.032Z,16.40
2019-01-28T06:34:27.473Z,19.80
2019-01-28T06:35:29.924Z,18.20
2019-01-28T06:36:34.097Z,17.20
2019-01-28T06:37:36.787Z,20.40
2019-01-28T06:38:39.632Z,19.40
2019-01-28T06:39:41.985Z,19.40
2019-01-28T06:40:44.744Z,21.00
2019-01-28T06:41:47.124Z,16.60
2019-01-28T06:42:50.076Z,19.20
2019-01-28T06:43:52.988Z,18.80
2019-01-28T06:44:55.888Z,18.80
2019-01-28T06:45:58.392Z,19.00
2019-01-28T06:47:01.088Z,19.00
2019-01-28T06:48:03.855Z,18.00
2019-01-28T06:49:06.261Z,19.60
2019-01-28T06:50:09.454Z,18.20
2019-01-28T06:51:14.158Z,18.60
2019-01-28T06:52:16.770Z,20.20
2019-01-28T06:53:19.306Z,18.00
2019-01-28T06:54:21.838Z,18.00
2019-01-28T06:55:24.606Z,19.80
2019-01-28T06:56:27.137Z,20.60
2019-01-28T06:57:29.613Z,22.00
2019-01-28T06:58:33.575Z,18.60
2019-01-28T06:59:36.535Z,18.20
2019-01-28T07:00:39.300Z,20.80
2019-01-28T07:01:41.628Z,18.20
2019-01-28T07:02:44.348Z,20.00
2019-01-28T07:03:46.785Z,19.00
2019-01-28T07:04:50.819Z,23.00
2019-01-28T07:05:53.241Z,19.80
2019-01-28T07:06:57.995Z,21.80
2019-01-28T07:08:00.891Z,19.00
2019-01-28T07:09:06.486Z,21.40
2019-01-28T07:10:09.026Z,19.00
2019-01-28T07:11:14.069Z,18.60
2019-01-28T07:12:16.680Z,19.20
2019-01-28T07:13:21.612Z,18.00
2019-01-28T07:14:24.227Z,20.20
2019-01-28T07:15:26.697Z,21.80
2019-01-28T07:16:30.411Z,20.00
2019-01-28T07:17:32.884Z,20.60
2019-01-28T07:18:35.425Z,23.40
2019-01-28T07:19:38.316Z,22.80
2019-01-28T07:20:41.563Z,23.40
2019-01-28T07:21:44.409Z,26.00
2019-01-28T07:22:46.959Z,22.20
2019-01-28T07:23:50.760Z,23.20
2019-01-28T07:24:53.148Z,24.00
2019-01-28T07:25:55.605Z,24.20
2019-01-28T07:26:57.994Z,23.00
2019-01-28T07:28:00.506Z,22.80
2019-01-28T07:29:03.076Z,23.60
2019-01-28T07:30:06.853Z,20.00
2019-01-28T07:31:09.340Z,22.00
2019-01-28T07:32:11.866Z,22.40
2019-01-28T07:33:14.512Z,23.00
2019-01-28T07:34:16.978Z,23.60
2019-01-28T07:35:19.364Z,23.00
2019-01-28T07:36:21.822Z,21.20
2019-01-28T07:37:24.220Z,23.40
2019-01-28T07:38:26.653Z,26.60
2019-01-28T07:39:29.098Z,22.20
2019-01-28T07:40:31.528Z,24.60
2019-01-28T07:41:33.986Z,25.40
2019-01-28T07:42:36.446Z,25.60
2019-01-28T07:43:39.275Z,23.20
2019-01-28T07:44:41.831Z,23.40
2019-01-28T07:45:45.861Z,27.80
2019-01-28T07:46:49.572Z,22.80
2019-01-28T07:47:52.192Z,24.40
2019-01-28T07:48:54.857Z,25.00
2019-01-28T07:49:57.280Z,28.20
2019-01-28T07:50:59.771Z,22.40
2019-01-28T07:52:02.422Z,26.20
2019-01-28T07:53:05.004Z,27.40
2019-01-28T07:54:07.624Z,25.40
2019-01-28T07:55:10.130Z,24.60
2019-01-28T07:56:14.012Z,22.40
2019-01-28T07:57:16.963Z,23.80
2019-01-28T07:58:19.327Z,25.80
2019-01-28T07:59:24.720Z,24.00
2019-01-28T08:00:27.994Z,23.60
2019-01-28T08:01:30.781Z,22.00
2019-01-28T08:02:33.145Z,25.80
2019-01-28T08:03:35.593Z,24.60
2019-01-28T08:04:38.217Z,25.40
2019-01-28T08:05:40.750Z,25.00
2019-01-28T08:06:43.238Z,26.80
2019-01-28T08:07:46.105Z,25.80
2019-01-28T08:08:48.606Z,24.20
2019-01-28T08:09:50.977Z,24.80
2019-01-28T08:10:53.433Z,24.40
2019-01-28T08:11:55.771Z,26.00
2019-01-28T08:12:58.464Z,28.80
2019-01-28T08:14:02.487Z,24.80
2019-01-28T08:15:05.790Z,29.60
2019-01-28T08:16:08.348Z,28.00
2019-01-28T08:17:10.810Z,22.20
2019-01-28T08:18:13.140Z,24.60
2019-01-28T08:19:17.006Z,23.80
2019-01-28T08:20:19.838Z,22.40
2019-01-28T08:21:22.774Z,25.60
2019-01-28T08:22:25.301Z,23.40
2019-01-28T08:23:28.156Z,19.60
2019-01-28T08:24:30.592Z,21.80
2019-01-28T08:25:33.055Z,21.60
2019-01-28T08:26:35.689Z,20.20
2019-01-28T08:27:38.060Z,21.60
2019-01-28T08:28:40.519Z,21.60
2019-01-28T08:29:43.149Z,26.40
2019-01-28T08:30:45.600Z,22.40
2019-01-28T08:31:48.418Z,21.60
2019-01-28T08:32:50.821Z,20.60
2019-01-28T08:33:53.366Z,23.20
2019-01-28T08:34:55.820Z,24.00
2019-01-28T08:35:58.206Z,21.40
2019-01-28T08:37:00.806Z,20.40
2019-01-28T08:38:03.252Z,22.80
2019-01-28T08:39:08.280Z,22.00
2019-01-28T08:40:12.447Z,20.60
2019-01-28T08:41:14.773Z,22.20
2019-01-28T08:42:17.216Z,22.80
2019-01-28T08:43:19.648Z,23.60
2019-01-28T08:44:23.478Z,24.60
2019-01-28T08:45:25.909Z,26.80
2019-01-28T08:46:30.382Z,22.40
2019-01-28T08:47:33.055Z,21.20
2019-01-28T08:48:35.425Z,25.20
2019-01-28T08:49:37.839Z,23.20
2019-01-28T08:50:40.652Z,25.40
2019-01-28T08:51:43.111Z,20.00
2019-01-28T08:52:45.693Z,23.20
2019-01-28T08:53:48.077Z,21.00
2019-01-28T08:54:50.421Z,24.00
2019-01-28T08:55:52.883Z,23.80
2019-01-28T08:56:55.561Z,21.60
2019-01-28T08:57:57.940Z,25.20
2019-01-28T08:59:00.354Z,21.00
2019-01-28T09:00:04.019Z,22.20
2019-01-28T09:01:08.127Z,23.80
2019-01-28T09:02:10.505Z,24.40
2019-01-28T09:03:12.881Z,24.00
2019-01-28T09:04:15.256Z,24.40
2019-01-28T09:05:22.306Z,23.40
2019-01-28T09:06:25.454Z,24.20
2019-01-28T09:07:27.791Z,21.80
2019-01-28T09:08:30.230Z,23.80
2019-01-28T09:09:32.710Z,24.20
2019-01-28T09:10:35.146Z,22.40
2019-01-28T09:11:38.016Z,24.20
2019-01-28T09:12:42.026Z,23.80
2019-01-28T09:13:44.485Z,21.60
2019-01-28T09:14:46.925Z,23.60
2019-01-28T09:15:49.419Z,24.40
2019-01-28T09:16:51.964Z,24.80
2019-01-28T09:17:54.458Z,25.00
2019-01-28T09:18:56.934Z,23.80
2019-01-28T09:19:59.356Z,26.40
2019-01-28T09:21:01.722Z,24.80
2019-01-28T09:22:04.516Z,22.40
2019-01-28T09:23:07.500Z,23.60
2019-01-28T09:24:11.961Z,23.60
2019-01-28T09:25:14.556Z,19.80
2019-01-28T09:26:17.642Z,23.20
2019-01-28T09:27:20.226Z,26.40
2019-01-28T09:28:22.651Z,23.80
2019-01-28T09:29:25.118Z,24.80
2019-01-28T09:30:29.512Z,20.20
2019-01-28T09:31:31.844Z,24.80
2019-01-28T09:32:34.280Z,23.20
2019-01-28T09:33:37.016Z,23.40
2019-01-28T09:34:40.483Z,21.80
2019-01-28T09:35:42.836Z,21.40
2019-01-28T09:36:45.386Z,21.80
2019-01-28T09:37:48.097Z,25.20
2019-01-28T09:38:50.514Z,22.00
2019-01-28T09:39:54.983Z,24.00
2019-01-28T09:40:57.549Z,24.60
2019-01-28T09:42:00.090Z,23.40
2019-01-28T09:43:02.654Z,22.40
2019-01-28T09:44:05.338Z,21.60
2019-01-28T09:45:10.767Z,23.40
2019-01-28T09:46:13.377Z,21.20
2019-01-28T09:47:15.819Z,24.00
2019-01-28T09:48:18.249Z,22.40
2019-01-28T09:49:21.772Z,22.80
2019-01-28T09:50:24.767Z,23.40
2019-01-28T09:51:27.149Z,23.00
2019-01-28T09:52:29.679Z,20.00
2019-01-28T09:53:33.460Z,25.00
2019-01-28T09:54:36.248Z,20.00
2019-01-28T09:55:38.726Z,24.60
2019-01-28T09:56:41.203Z,19.40
2019-01-28T09:57:43.631Z,24.20
2019-01-28T09:58:46.368Z,24.20
2019-01-28T09:59:48.726Z,21.60
2019-01-28T10:00:51.331Z,22.60
2019-01-28T10:01:54.031Z,21.60
2019-01-28T10:02:57.912Z,27.00
2019-01-28T10:04:01.102Z,22.80
2019-01-28T10:05:04.574Z,23.60
2019-01-28T10:06:08.308Z,21.60
2019-01-28T10:07:11.036Z,23.40
2019-01-28T10:08:13.482Z,22.80
2019-01-28T10:09:16.110Z,24.00
2019-01-28T10:10:18.504Z,22.80
2019-01-28T10:11:22.078Z,20.20
2019-01-28T10:12:24.746Z,23.60
2019-01-28T10:13:27.186Z,23.00
2019-01-28T10:14:29.673Z,25.20
2019-01-28T10:15:32.081Z,19.00
2019-01-28T10:16:34.814Z,25.80
2019-01-28T10:17:38.981Z,21.80
2019-01-28T10:18:42.093Z,24.00
2019-01-28T10:19:44.701Z,22.20
2019-01-28T10:20:47.943Z,21.20
2019-01-28T10:21:51.466Z,21.20
2019-01-28T10:22:53.900Z,26.20
2019-01-28T10:23:56.485Z,24.40
2019-01-28T10:24:59.076Z,23.60
2019-01-28T10:26:01.535Z,20.00
2019-01-28T10:27:03.994Z,24.40
2019-01-28T10:28:07.611Z,26.80
2019-01-28T10:29:10.205Z,22.20
2019-01-28T10:30:15.237Z,22.60
2019-01-28T10:31:17.927Z,23.80
2019-01-28T10:32:20.362Z,25.60
2019-01-28T10:33:24.459Z,23.40
2019-01-28T10:34:26.789Z,23.60
2019-01-28T10:35:30.033Z,22.80
2019-01-28T10:36:34.204Z,23.20
2019-01-28T10:37:36.989Z,22.60
2019-01-28T10:38:39.691Z,22.20
2019-01-28T10:39:42.291Z,24.80
2019-01-28T10:40:45.173Z,23.00
2019-01-28T10:41:49.913Z,25.40
2019-01-28T10:42:52.293Z,25.20
2019-01-28T10:43:55.535Z,25.40
2019-01-28T10:44:58.267Z,23.40
2019-01-28T10:46:01.025Z,20.00
2019-01-28T10:47:03.531Z,23.40
2019-01-28T10:48:07.418Z,23.40
2019-01-28T10:49:09.895Z,22.20
2019-01-28T10:50:14.348Z,22.80
2019-01-28T10:51:17.197Z,23.60
2019-01-28T10:52:19.939Z,25.20
2019-01-28T10:53:22.424Z,27.00
2019-01-28T10:54:24.803Z,25.20
2019-01-28T10:55:27.170Z,20.00
2019-01-28T10:56:29.685Z,23.00
2019-01-28T10:57:33.232Z,23.40
2019-01-28T10:58:35.801Z,20.40
2019-01-28T10:59:40.684Z,24.20
2019-01-28T11:00:50.164Z,22.80
2019-01-28T11:01:53.239Z,18.40
2019-01-28T11:02:55.794Z,21.40
2019-01-28T11:03:58.391Z,22.20
2019-01-28T11:05:01.076Z,23.40
2019-01-28T11:06:03.641Z,27.00
2019-01-28T11:07:06.443Z,19.40
2019-01-28T11:08:08.880Z,26.00
2019-01-28T11:09:11.433Z,23.20
2019-01-28T11:10:15.721Z,25.40
2019-01-28T11:11:19.686Z,20.80
2019-01-28T11:12:22.568Z,21.40
2019-01-28T11:13:24.881Z,25.40
2019-01-28T11:14:27.507Z,22.60
2019-01-28T11:15:30.031Z,22.60
2019-01-28T11:16:34.352Z,23.40
2019-01-28T11:17:37.099Z,22.20
2019-01-28T11:18:39.665Z,24.20
2019-01-28T11:19:43.490Z,25.40
2019-01-28T11:20:46.125Z,22.60
2019-01-28T11:21:48.818Z,23.60
2019-01-28T11:22:51.640Z,21.20
2019-01-28T11:23:56.553Z,22.00
2019-01-28T11:24:59.226Z,23.20
2019-01-28T11:26:01.831Z,25.00
2019-01-28T11:27:04.693Z,21.00
2019-01-28T11:28:07.351Z,23.60
2019-01-28T11:29:11.286Z,23.80
2019-01-28T11:30:19.733Z,23.60
2019-01-28T11:31:22.354Z,23.60
2019-01-28T11:32:24.763Z,23.20
2019-01-28T11:33:27.255Z,22.80
2019-01-28T11:34:30.014Z,23.40
2019-01-28T11:35:35.516Z,22.60
2019-01-28T11:36:38.737Z,25.40
2019-01-28T11:37:41.385Z,22.40
2019-01-28T11:38:44.070Z,22.80
2019-01-28T11:39:46.827Z,18.60
2019-01-28T11:40:49.351Z,23.40
2019-01-28T11:41:52.294Z,21.00
2019-01-28T11:42:54.937Z,20.40
2019-01-28T11:43:57.421Z,23.00
2019-01-28T11:44:59.872Z,23.80
2019-01-28T11:46:04.227Z,23.80
2019-01-28T11:47:06.994Z,21.00
2019-01-28T11:48:09.431Z,24.60
2019-01-28T11:49:13.639Z,21.00
2019-01-28T11:50:16.069Z,22.40
2019-01-28T11:51:18.682Z,23.80
2019-01-28T11:52:21.156Z,23.00
2019-01-28T11:53:23.604Z,23.80
2019-01-28T11:54:26.187Z,21.40
2019-01-28T11:55:29.071Z,23.40
2019-01-28T11:56:31.509Z,21.40
2019-01-28T11:57:35.212Z,23.40
2019-01-28T11:58:37.697Z,23.60
2019-01-28T11:59:40.080Z,25.40
2019-01-28T12:00:54.428Z,23.80
2019-01-28T12:01:57.026Z,24.20
2019-01-28T12:02:59.610Z,23.40
2019-01-28T12:04:02.544Z,21.80
2019-01-28T12:05:05.362Z,23.00
2019-01-28T12:06:09.058Z,23.00
2019-01-28T12:07:11.395Z,26.60
2019-01-28T12:08:13.809Z,22.40
2019-01-28T12:09:16.233Z,22.60
2019-01-28T12:10:18.728Z,21.80
2019-01-28T12:11:21.318Z,21.20
2019-01-28T12:12:23.869Z,20.60
2019-01-28T12:13:26.240Z,22.20
2019-01-28T12:14:28.810Z,22.20
2019-01-28T12:15:32.680Z,24.00
2019-01-28T12:16:35.144Z,20.00
2019-01-28T12:17:37.753Z,23.40
2019-01-28T12:18:40.247Z,22.80
2019-01-28T12:19:44.227Z,19.60
2019-01-28T12:20:53.485Z,20.60
2019-01-28T12:21:51.425Z,21.00
2019-01-28T12:22:55.503Z,24.80
2019-01-28T12:23:57.947Z,21.40
2019-01-28T12:25:01.455Z,22.00
2019-01-28T12:26:03.910Z,19.40
2019-01-28T12:27:06.573Z,22.60
2019-01-28T12:28:08.997Z,23.60
2019-01-28T12:29:14.545Z,24.00
2019-01-28T12:30:22.341Z,21.00
2019-01-28T12:31:24.963Z,22.80
2019-01-28T12:32:28.269Z,23.80
2019-01-28T12:33:31.321Z,22.60
2019-01-28T12:34:33.651Z,22.20
2019-01-28T12:35:36.090Z,21.80
2019-01-28T12:36:38.489Z,20.80
2019-01-28T12:37:41.950Z,18.80
2019-01-28T12:38:44.303Z,19.80
2019-01-28T12:39:47.788Z,23.60
2019-01-28T12:40:50.172Z,19.60
2019-01-28T12:41:52.992Z,21.40
2019-01-28T12:42:55.325Z,19.80
2019-01-28T12:43:57.831Z,18.80
2019-01-28T12:45:00.285Z,18.60
2019-01-28T12:46:04.060Z,22.20
2019-01-28T12:47:06.634Z,19.80
2019-01-28T12:48:09.084Z,23.00
2019-01-28T12:49:13.413Z,19.80
2019-01-28T12:50:16.192Z,18.40
2019-01-28T12:51:18.679Z,21.60
2019-01-28T12:52:22.773Z,23.00
2019-01-28T12:53:25.336Z,21.80
2019-01-28T12:54:30.222Z,24.20
2019-01-28T12:55:34.114Z,22.40
2019-01-28T12:56:36.692Z,22.60
2019-01-28T12:57:39.196Z,20.60
2019-01-28T12:58:41.870Z,20.40
2019-01-28T12:59:44.348Z,20.20
2019-01-28T13:00:51.316Z,22.00
2019-01-28T13:01:53.816Z,23.00
2019-01-28T13:02:56.861Z,19.60
2019-01-28T13:03:59.276Z,21.80
2019-01-28T13:05:01.822Z,22.80
2019-01-28T13:06:04.450Z,20.60
2019-01-28T13:07:07.307Z,20.80
2019-01-28T13:08:11.900Z,22.00
2019-01-28T13:09:15.574Z,20.20
2019-01-28T13:10:20.107Z,21.60
2019-01-28T13:11:23.363Z,20.00
2019-01-28T13:12:25.997Z,23.20
2019-01-28T13:13:28.491Z,18.40
2019-01-28T13:14:30.950Z,21.20
2019-01-28T13:15:36.269Z,20.40
2019-01-28T13:16:38.874Z,20.80
2019-01-28T13:17:41.576Z,19.80
2019-01-28T13:18:44.011Z,21.40
2019-01-28T13:19:48.785Z,21.00
2019-01-28T13:20:51.572Z,19.60
2019-01-28T13:21:54.557Z,22.00
2019-01-28T13:22:57.122Z,22.20
2019-01-28T13:24:02.515Z,18.40
2019-01-28T13:25:05.389Z,21.00
2019-01-28T13:26:08.200Z,18.40
2019-01-28T13:27:11.153Z,19.20
2019-01-28T13:28:14.031Z,19.40
2019-01-28T13:29:16.475Z,20.40
2019-01-28T13:30:21.203Z,23.80
2019-01-28T13:31:24.721Z,21.60
2019-01-28T13:32:28.687Z,20.40